createdAt,value
2022-09-23T00:01:27.291Z,7.14
2022-09-23T00:03:56.490Z,7.18
2022-09-23T00:06:25.463Z,7.22
2022-09-23T00:08:54.615Z,7.23
2022-09-23T00:11:26.105Z,7.23
2022-09-23T00:13:58.905Z,7.23
2022-09-23T00:16:34.356Z,7.21
2022-09-23T00:19:05.059Z,7.20
2022-09-23T00:21:33.156Z,7.17
2022-09-23T00:24:02.467Z,7.16
2022-09-23T00:26:30.613Z,7.19
2022-09-23T00:28:58.761Z,7.21
2022-09-23T00:31:27.850Z,7.22
2022-09-23T00:33:58.303Z,7.22
2022-09-23T00:36:28.436Z,7.23
2022-09-23T00:38:57.301Z,7.25
2022-09-23T00:41:28.024Z,7.28
2022-09-23T00:44:00.909Z,7.30
2022-09-23T00:46:35.574Z,7.33
2022-09-23T00:49:11.181Z,7.33
2022-09-23T00:51:45.444Z,7.35
2022-09-23T00:54:13.632Z,7.36
2022-09-23T00:56:41.782Z,7.36
2022-09-23T00:59:11.351Z,7.34
2022-09-23T01:01:39.927Z,7.35
2022-09-23T01:04:08.858Z,7.35
2022-09-23T01:06:37.014Z,7.35
2022-09-23T01:09:05.353Z,7.35
2022-09-23T01:11:41.058Z,7.35
2022-09-23T01:14:37.093Z,7.35
2022-09-23T01:17:19.505Z,7.36
2022-09-23T01:20:16.310Z,7.36
2022-09-23T01:22:50.097Z,7.37
2022-09-23T01:26:04.039Z,7.39
2022-09-23T01:28:50.555Z,7.39
2022-09-23T01:31:32.114Z,7.39
2022-09-23T01:34:16.091Z,7.40
2022-09-23T01:36:51.760Z,7.39
2022-09-23T01:39:45.986Z,7.38
2022-09-23T01:42:43.016Z,7.36
2022-09-23T01:45:11.092Z,7.35
2022-09-23T01:48:25.391Z,7.34
2022-09-23T01:51:21.172Z,7.36
2022-09-23T01:54:00.107Z,7.37
2022-09-23T01:56:34.393Z,7.38
2022-09-23T01:59:17.214Z,7.40
2022-09-23T02:02:16.079Z,7.41
2022-09-23T02:04:54.280Z,7.43
2022-09-23T02:07:40.269Z,7.45
2022-09-23T02:10:25.590Z,7.47
2022-09-23T02:13:00.718Z,7.48
2022-09-23T02:15:35.370Z,7.49
2022-09-23T02:18:33.247Z,7.51
2022-09-23T02:21:06.402Z,7.52
2022-09-23T02:23:42.666Z,7.53
2022-09-23T02:26:35.807Z,7.53
2022-09-23T02:29:19.676Z,7.54
2022-09-23T02:31:50.700Z,7.55
2022-09-23T02:34:39.413Z,7.56
2022-09-23T02:37:37.327Z,7.58
2022-09-23T02:40:15.027Z,7.58
2022-09-23T02:43:05.850Z,7.58
2022-09-23T02:45:34.550Z,7.58
2022-09-23T02:48:22.274Z,7.58
2022-09-23T02:50:50.524Z,7.59
2022-09-23T02:53:18.928Z,7.58
2022-09-23T02:55:46.929Z,7.59
2022-09-23T02:58:15.040Z,7.58
2022-09-23T03:01:16.049Z,7.58
2022-09-23T03:03:57.326Z,7.59
2022-09-23T03:06:32.139Z,7.61
2022-09-23T03:09:11.443Z,7.63
2022-09-23T03:11:46.007Z,7.64
2022-09-23T03:14:39.639Z,7.66
2022-09-23T03:17:21.771Z,7.67
2022-09-23T03:19:58.773Z,7.69
2022-09-23T03:22:56.325Z,7.71
2022-09-23T03:25:26.961Z,7.73
2022-09-23T03:28:01.060Z,7.74
2022-09-23T03:30:29.967Z,7.73
2022-09-23T03:33:01.154Z,7.73
2022-09-23T03:35:32.212Z,7.70
2022-09-23T03:38:16.141Z,7.72
2022-09-23T03:40:47.866Z,7.71
2022-09-23T03:43:16.816Z,7.69
2022-09-23T03:45:46.935Z,7.69
2022-09-23T03:48:15.843Z,7.69
2022-09-23T03:50:44.651Z,7.69
2022-09-23T03:53:13.889Z,7.69
2022-09-23T03:55:41.959Z,7.69
2022-09-23T03:58:09.967Z,7.69
2022-09-23T04:00:38.096Z,7.70
2022-09-23T04:03:10.882Z,7.72
2022-09-23T04:05:39.749Z,7.74
2022-09-23T04:08:07.949Z,7.77
2022-09-23T04:10:36.077Z,7.80
2022-09-23T04:13:17.355Z,7.83
2022-09-23T04:15:45.419Z,7.84
2022-09-23T04:18:13.439Z,7.85
2022-09-23T04:20:41.567Z,7.83
2022-09-23T04:23:09.598Z,7.81
2022-09-23T04:25:47.619Z,7.79
2022-09-23T04:28:16.518Z,7.77
2022-09-23T04:30:46.195Z,7.76
2022-09-23T04:33:14.832Z,7.77
2022-09-23T04:35:45.849Z,7.76
2022-09-23T04:38:13.990Z,7.75
2022-09-23T04:40:42.137Z,7.77
2022-09-23T04:43:13.468Z,7.80
2022-09-23T04:45:45.397Z,7.85
2022-09-23T04:48:14.091Z,7.90
2022-09-23T04:50:42.571Z,7.95
2022-09-23T04:53:10.676Z,7.99
2022-09-23T04:55:38.705Z,8.04
2022-09-23T04:58:09.222Z,8.07
2022-09-23T05:00:38.469Z,8.11
2022-09-23T05:03:07.289Z,8.14
2022-09-23T05:05:35.297Z,8.16
2022-09-23T05:08:03.428Z,8.18
2022-09-23T05:10:31.505Z,8.19
2022-09-23T05:12:59.585Z,8.22
2022-09-23T05:15:27.785Z,8.24
2022-09-23T05:17:59.234Z,8.27
2022-09-23T05:20:27.410Z,8.29
2022-09-23T05:22:56.328Z,8.31
2022-09-23T05:25:24.487Z,8.31
2022-09-23T05:27:52.773Z,8.34
2022-09-23T05:30:20.844Z,8.37
2022-09-23T05:32:48.855Z,8.41
2022-09-23T05:35:17.030Z,8.45
2022-09-23T05:37:45.059Z,8.50
2022-09-23T05:40:13.132Z,8.56
2022-09-23T05:42:41.337Z,8.61
2022-09-23T05:45:09.885Z,8.67
2022-09-23T05:47:38.364Z,8.71
2022-09-23T05:50:07.302Z,8.75
2022-09-23T05:52:35.462Z,8.80
2022-09-23T05:55:03.729Z,8.85
2022-09-23T05:57:32.786Z,8.93
2022-09-23T06:00:01.184Z,9.04
2022-09-23T06:02:29.475Z,9.16
2022-09-23T06:04:57.592Z,9.27
2022-09-23T06:07:25.763Z,9.36
2022-09-23T06:09:54.156Z,9.45
2022-09-23T06:12:22.638Z,9.53
2022-09-23T06:14:50.828Z,9.61
2022-09-23T06:17:18.926Z,9.70
2022-09-23T06:19:47.077Z,9.74
2022-09-23T06:22:17.090Z,9.76
2022-09-23T06:24:45.129Z,9.72
2022-09-23T06:27:13.569Z,9.68
2022-09-23T06:29:41.637Z,9.69
2022-09-23T06:32:09.745Z,9.73
2022-09-23T06:34:49.482Z,9.77
2022-09-23T06:37:20.791Z,9.83
2022-09-23T06:39:49.694Z,9.85
2022-09-23T06:42:17.772Z,9.83
2022-09-23T06:44:45.860Z,9.77
2022-09-23T06:47:14.531Z,9.74
2022-09-23T06:49:42.587Z,9.76
2022-09-23T06:52:11.137Z,9.79
2022-09-23T06:54:39.237Z,9.78
2022-09-23T06:57:07.345Z,9.75
2022-09-23T06:59:35.845Z,9.69
2022-09-23T07:02:04.212Z,9.62
2022-09-23T07:04:32.493Z,9.58
2022-09-23T07:07:00.608Z,9.58
2022-09-23T07:09:29.226Z,9.62
2022-09-23T07:11:57.234Z,9.67
2022-09-23T07:14:25.523Z,9.73
2022-09-23T07:16:54.224Z,9.82
2022-09-23T07:19:22.350Z,9.99
2022-09-23T07:21:50.409Z,10.17
2022-09-23T07:24:18.558Z,10.31
2022-09-23T07:26:46.645Z,10.45
2022-09-23T07:29:15.204Z,10.54
2022-09-23T07:31:43.295Z,10.65
2022-09-23T07:34:11.840Z,10.70
2022-09-23T07:36:41.078Z,10.76
2022-09-23T07:39:12.384Z,10.80
2022-09-23T07:41:44.609Z,10.86
2022-09-23T07:44:13.017Z,10.92
2022-09-23T07:46:41.483Z,11.05
2022-09-23T07:49:10.708Z,11.14
2022-09-23T07:51:41.307Z,11.24
2022-09-23T07:54:13.843Z,11.34
2022-09-23T07:56:43.740Z,11.42
2022-09-23T07:59:17.820Z,11.51
2022-09-23T08:01:48.387Z,11.77
2022-09-23T08:04:24.081Z,11.96
2022-09-23T08:06:56.529Z,12.12
2022-09-23T08:09:28.792Z,12.15
2022-09-23T08:11:56.892Z,12.05
2022-09-23T08:14:25.276Z,11.97
2022-09-23T08:16:54.272Z,12.10
2022-09-23T08:19:22.411Z,12.17
2022-09-23T08:21:52.385Z,12.03
2022-09-23T08:24:24.242Z,11.88
2022-09-23T08:26:54.337Z,11.80
2022-09-23T08:29:24.467Z,12.10
2022-09-23T08:31:53.617Z,12.62
2022-09-23T08:34:23.621Z,12.89
2022-09-23T08:36:52.517Z,13.07
2022-09-23T08:39:21.254Z,13.28
2022-09-23T08:41:49.625Z,13.46
2022-09-23T08:44:25.323Z,13.54
2022-09-23T08:47:33.811Z,13.58
2022-09-23T08:50:13.595Z,13.62
2022-09-23T08:52:57.065Z,13.55
2022-09-23T08:55:40.686Z,13.48
2022-09-23T08:58:34.947Z,13.46
2022-09-23T09:01:10.386Z,13.39
2022-09-23T09:03:54.006Z,13.34
2022-09-23T09:07:24.680Z,13.70
2022-09-23T09:10:06.748Z,14.52
2022-09-23T09:12:43.582Z,14.81
2022-09-23T09:15:16.350Z,14.78
2022-09-23T09:18:12.358Z,14.81
2022-09-23T09:20:45.641Z,14.93
2022-09-23T09:23:24.503Z,15.13
2022-09-23T09:25:55.341Z,15.34
2022-09-23T09:28:40.172Z,15.40
2022-09-23T09:31:22.655Z,15.30
2022-09-23T09:34:06.446Z,15.02
2022-09-23T09:36:57.882Z,14.93
2022-09-23T09:39:27.609Z,15.21
2022-09-23T09:42:00.295Z,14.94
2022-09-23T09:44:45.098Z,14.45
2022-09-23T09:47:51.819Z,13.98
2022-09-23T09:50:47.562Z,13.52
2022-09-23T09:53:27.252Z,13.22
2022-09-23T09:56:04.872Z,12.94
2022-09-23T09:59:04.130Z,12.69
2022-09-23T10:01:34.682Z,12.56
2022-09-23T10:04:31.446Z,12.58
2022-09-23T10:07:13.412Z,12.59
2022-09-23T10:09:49.762Z,12.55
2022-09-23T10:12:22.029Z,12.63
2022-09-23T10:14:59.221Z,12.79
2022-09-23T10:17:33.211Z,13.01
2022-09-23T10:20:03.096Z,13.43
2022-09-23T10:22:41.072Z,14.53
2022-09-23T10:25:19.486Z,15.31
2022-09-23T10:27:47.582Z,15.68
2022-09-23T10:30:15.634Z,15.52
2022-09-23T10:32:45.043Z,15.13
2022-09-23T10:35:16.539Z,15.37
2022-09-23T10:37:48.684Z,16.25
2022-09-23T10:40:48.527Z,16.75
2022-09-23T10:43:57.959Z,17.49
2022-09-23T10:46:47.669Z,18.33
2022-09-23T10:49:37.339Z,19.07
2022-09-23T10:52:19.374Z,19.13
2022-09-23T10:54:53.341Z,18.48
2022-09-23T10:57:46.522Z,17.69
2022-09-23T11:00:41.283Z,16.96
2022-09-23T11:03:27.896Z,16.36
2022-09-23T11:06:13.926Z,16.39
2022-09-23T11:09:08.682Z,16.96
2022-09-23T11:12:14.385Z,17.60
2022-09-23T11:14:45.484Z,18.38
2022-09-23T11:17:29.651Z,18.58
2022-09-23T11:20:03.244Z,18.97
2022-09-23T11:22:37.660Z,19.40
2022-09-23T11:25:53.866Z,19.58
2022-09-23T11:28:51.131Z,19.76
2022-09-23T11:31:50.669Z,19.54
2022-09-23T11:34:47.417Z,19.53
2022-09-23T11:37:23.257Z,19.23
2022-09-23T11:40:30.794Z,18.73
2022-09-23T11:43:07.701Z,18.07
2022-09-23T11:45:46.506Z,17.72
2022-09-23T11:48:23.791Z,17.29
2022-09-23T11:50:57.547Z,16.84
2022-09-23T11:53:31.672Z,16.44
2022-09-23T11:56:10.346Z,16.14
2022-09-23T11:58:50.127Z,15.86
2022-09-23T12:01:37.969Z,15.87
2022-09-23T12:04:21.190Z,16.33
2022-09-23T12:07:08.471Z,16.45
2022-09-23T12:10:00.450Z,16.06
2022-09-23T12:12:53.141Z,15.68
2022-09-23T12:15:30.122Z,15.51
2022-09-23T12:18:18.376Z,15.68
2022-09-23T12:21:08.320Z,16.75
2022-09-23T12:23:47.673Z,17.51
2022-09-23T12:26:19.931Z,18.04
2022-09-23T12:28:53.066Z,18.26
2022-09-23T12:31:31.849Z,18.01
2022-09-23T12:34:09.206Z,17.73
2022-09-23T12:36:39.604Z,17.69
2022-09-23T12:39:30.530Z,17.92
2022-09-23T12:42:17.740Z,18.25
2022-09-23T12:44:48.688Z,18.31
2022-09-23T12:47:25.563Z,18.31
2022-09-23T12:49:54.899Z,17.94
2022-09-23T12:52:27.492Z,17.54
2022-09-23T12:54:58.403Z,17.14
2022-09-23T12:57:35.714Z,16.73
2022-09-23T13:00:07.087Z,16.39
2022-09-23T13:02:39.974Z,16.12
2022-09-23T13:05:26.833Z,15.84
2022-09-23T13:08:18.466Z,15.57
2022-09-23T13:10:58.671Z,15.34
2022-09-23T13:13:38.008Z,15.20
2022-09-23T13:16:33.240Z,15.05
2022-09-23T13:19:06.633Z,14.90
2022-09-23T13:21:45.845Z,14.79
2022-09-23T13:24:14.432Z,14.77
2022-09-23T13:26:47.837Z,14.82
2022-09-23T13:29:44.344Z,14.90
2022-09-23T13:32:24.076Z,14.93
2022-09-23T13:35:02.772Z,14.91
2022-09-23T13:37:47.707Z,14.84
2022-09-23T13:40:29.758Z,14.71
2022-09-23T13:43:02.421Z,14.57
2022-09-23T13:45:32.476Z,14.53
2022-09-23T13:48:08.349Z,14.48
2022-09-23T13:50:39.062Z,14.40
2022-09-23T13:53:14.384Z,14.30
2022-09-23T13:55:42.578Z,14.22
2022-09-23T13:58:13.713Z,14.12
2022-09-23T14:00:42.134Z,13.98
2022-09-23T14:03:31.162Z,13.89
2022-09-23T14:06:05.441Z,13.82
2022-09-23T14:08:33.905Z,13.72
2022-09-23T14:11:05.283Z,13.59
2022-09-23T14:13:41.440Z,13.49
2022-09-23T14:16:14.950Z,13.41
2022-09-23T14:18:49.679Z,13.32
2022-09-23T14:21:49.294Z,13.26
2022-09-23T14:24:19.562Z,13.22
2022-09-23T14:26:49.205Z,13.18
2022-09-23T14:29:39.377Z,13.12
2022-09-23T14:32:13.649Z,13.03
2022-09-23T14:35:05.222Z,12.93
2022-09-23T14:37:57.455Z,12.89
2022-09-23T14:40:34.859Z,12.83
2022-09-23T14:43:17.092Z,12.76
2022-09-23T14:45:48.027Z,12.69
2022-09-23T14:48:23.206Z,12.63
2022-09-23T14:50:56.387Z,12.58
2022-09-23T14:53:46.420Z,12.56
2022-09-23T14:56:17.164Z,12.52
2022-09-23T14:58:55.208Z,12.49
2022-09-23T15:01:33.638Z,12.45
2022-09-23T15:04:10.958Z,12.40
2022-09-23T15:06:43.161Z,12.36
2022-09-23T15:09:20.748Z,12.33
2022-09-23T15:11:51.976Z,12.29
2022-09-23T15:14:37.090Z,12.25
2022-09-23T15:17:25.854Z,12.20
2022-09-23T15:19:57.530Z,12.14
2022-09-23T15:22:26.098Z,12.07
2022-09-23T15:24:56.513Z,12.01
2022-09-23T15:27:34.600Z,11.92
2022-09-23T15:30:17.213Z,11.87
2022-09-23T15:32:46.682Z,11.80
2022-09-23T15:35:21.186Z,11.73
2022-09-23T15:37:51.715Z,11.63
2022-09-23T15:40:26.108Z,11.53
2022-09-23T15:42:57.017Z,11.49
2022-09-23T15:45:53.307Z,11.40
2022-09-23T15:48:29.530Z,11.29
2022-09-23T15:51:04.275Z,11.20
2022-09-23T15:53:33.143Z,11.10
2022-09-23T15:56:01.533Z,11.03
2022-09-23T15:58:29.931Z,10.95
2022-09-23T16:00:59.565Z,10.88
2022-09-23T16:03:30.783Z,10.81
2022-09-23T16:06:03.286Z,10.73
2022-09-23T16:08:33.147Z,10.65
2022-09-23T16:11:01.577Z,10.58
2022-09-23T16:13:29.779Z,10.52
2022-09-23T16:15:58.023Z,10.46
2022-09-23T16:18:26.185Z,10.39
2022-09-23T16:20:54.876Z,10.33
2022-09-23T16:23:35.281Z,10.26
2022-09-23T16:26:15.776Z,10.19
2022-09-23T16:28:46.367Z,10.13
2022-09-23T16:31:18.734Z,10.08
2022-09-23T16:33:48.451Z,10.02
2022-09-23T16:36:21.419Z,10.00
2022-09-23T16:38:50.250Z,9.98
2022-09-23T16:44:07.499Z,9.99
2022-09-23T16:52:07.674Z,10.00
2022-09-23T16:54:37.650Z,9.98
2022-09-23T16:57:05.711Z,9.96
2022-09-23T16:59:53.782Z,9.89
2022-09-23T17:02:40.676Z,9.82
2022-09-23T17:05:09.274Z,9.75
2022-09-23T17:07:38.226Z,9.73
2022-09-23T17:10:07.169Z,9.71
2022-09-23T17:12:35.362Z,9.69
2022-09-23T17:15:07.361Z,9.68
2022-09-23T17:17:37.681Z,9.67
2022-09-23T17:20:06.869Z,9.64
2022-09-23T17:28:06.547Z,9.63
2022-09-23T17:30:34.841Z,9.61
2022-09-23T17:33:02.852Z,9.57
2022-09-23T17:35:30.910Z,9.53
2022-09-23T17:37:58.897Z,9.48
2022-09-23T17:40:27.844Z,9.42
2022-09-23T17:48:32.234Z,9.34
2022-09-23T17:51:10.588Z,9.33
2022-09-23T17:53:46.013Z,9.30
2022-09-23T17:56:14.116Z,9.28
2022-09-23T17:58:43.261Z,9.23
2022-09-23T18:01:13.946Z,9.21
2022-09-23T18:03:45.753Z,9.19
2022-09-23T18:06:19.200Z,9.15
2022-09-23T18:08:49.215Z,9.11
2022-09-23T18:11:20.451Z,9.07
2022-09-23T18:13:54.203Z,8.96
2022-09-23T18:16:24.501Z,8.90
2022-09-23T18:18:54.402Z,8.88
2022-09-23T18:21:24.596Z,8.82
2022-09-23T18:23:53.083Z,8.75
2022-09-23T18:26:23.562Z,8.68
2022-09-23T18:28:55.757Z,8.62
2022-09-23T18:31:24.230Z,8.56
2022-09-23T18:33:54.404Z,8.51
2022-09-23T18:36:24.681Z,8.46
2022-09-23T18:38:53.170Z,8.40
2022-09-23T18:41:22.238Z,8.34
2022-09-23T18:43:50.500Z,8.29
2022-09-23T18:46:24.502Z,8.27
2022-09-23T18:49:12.250Z,8.24
2022-09-23T18:51:56.044Z,8.23
2022-09-23T18:54:28.529Z,8.18
2022-09-23T18:56:57.590Z,8.18
2022-09-23T18:59:29.508Z,8.18
2022-09-23T19:01:59.227Z,8.17
2022-09-23T19:04:27.673Z,8.15
2022-09-23T19:06:56.811Z,8.12
2022-09-23T19:09:25.655Z,8.10
2022-09-23T19:11:53.967Z,8.10
2022-09-23T19:14:22.462Z,8.09
2022-09-23T19:16:50.961Z,8.08
2022-09-23T19:19:19.165Z,8.02
2022-09-23T19:21:47.452Z,7.98
2022-09-23T19:24:20.607Z,7.94
2022-09-23T19:26:50.430Z,7.91
2022-09-23T19:29:19.908Z,7.88
2022-09-23T19:31:49.097Z,7.84
2022-09-23T19:34:20.321Z,7.81
2022-09-23T19:36:48.718Z,7.79
2022-09-23T19:39:22.358Z,7.77
2022-09-23T19:41:52.642Z,7.76
2022-09-23T19:44:20.850Z,7.77
2022-09-23T19:46:55.120Z,7.80
2022-09-23T19:49:25.549Z,7.82
2022-09-23T19:51:56.173Z,7.84
2022-09-23T19:54:27.663Z,7.87
2022-09-23T19:56:56.075Z,7.89
2022-09-23T19:59:26.615Z,7.90
2022-09-23T20:01:55.024Z,7.90
2022-09-23T20:04:23.253Z,7.89
2022-09-23T20:06:51.375Z,7.87
2022-09-23T20:09:19.505Z,7.86
2022-09-23T20:11:47.741Z,7.84
2022-09-23T20:14:15.778Z,7.82
2022-09-23T20:16:44.553Z,7.82
2022-09-23T20:19:13.715Z,7.80
2022-09-23T20:21:41.753Z,7.86
2022-09-23T20:24:12.030Z,7.85
2022-09-23T20:26:58.939Z,7.82
2022-09-23T20:29:27.061Z,7.77
2022-09-23T20:31:56.429Z,7.73
2022-09-23T20:34:24.645Z,7.69
2022-09-23T20:36:52.735Z,7.67
2022-09-23T20:39:21.206Z,7.65
2022-09-23T20:41:49.891Z,7.63
2022-09-23T20:44:18.610Z,7.58
2022-09-23T20:46:48.954Z,7.50
2022-09-23T20:49:18.118Z,7.43
2022-09-23T20:51:50.165Z,7.35
2022-09-23T20:54:21.190Z,7.30
2022-09-23T20:56:49.340Z,7.28
2022-09-23T20:59:18.637Z,7.28
2022-09-23T21:01:47.801Z,7.31
2022-09-23T21:04:16.394Z,7.36
2022-09-23T21:06:44.564Z,7.38
2022-09-23T21:09:12.692Z,7.39
2022-09-23T21:11:41.030Z,7.39
2022-09-23T21:14:09.864Z,7.38
2022-09-23T21:16:38.812Z,7.37
2022-09-23T21:19:08.280Z,7.32
2022-09-23T21:21:36.423Z,7.28
2022-09-23T21:24:31.397Z,7.26
2022-09-23T21:26:52.760Z,7.25
2022-09-23T21:29:21.192Z,7.23
2022-09-23T21:31:49.918Z,7.20
2022-09-23T21:34:19.415Z,7.16
2022-09-23T21:36:48.179Z,7.12
2022-09-23T21:39:16.788Z,7.08
2022-09-23T21:41:45.230Z,7.05
2022-09-23T21:44:13.392Z,7.02
2022-09-23T21:46:41.725Z,7.03
2022-09-23T21:49:09.950Z,7.05
2022-09-23T21:51:42.994Z,7.07
2022-09-23T21:54:15.793Z,7.09
2022-09-23T21:56:44.867Z,7.10
2022-09-23T21:59:13.142Z,7.14
2022-09-23T22:01:44.642Z,7.16
2022-09-23T22:04:19.204Z,7.17
2022-09-23T22:06:49.237Z,7.18
2022-09-23T22:09:19.983Z,7.20
2022-09-23T22:12:09.807Z,7.24
2022-09-23T22:14:39.288Z,7.30
2022-09-23T22:17:11.537Z,7.36
2022-09-23T22:19:45.888Z,7.40
2022-09-23T22:22:18.541Z,7.46
2022-09-23T22:24:47.909Z,7.54
2022-09-23T22:27:19.627Z,7.56
2022-09-23T22:30:06.691Z,7.56
2022-09-23T22:32:40.795Z,7.54
2022-09-23T22:35:12.347Z,7.55
2022-09-23T22:37:40.477Z,7.58
2022-09-23T22:40:14.206Z,7.62
2022-09-23T22:42:43.040Z,7.61
2022-09-23T22:45:12.628Z,7.60
2022-09-23T22:47:45.690Z,7.59
2022-09-23T22:50:14.809Z,7.58
2022-09-23T22:52:43.566Z,7.57
2022-09-23T22:55:12.089Z,7.57
2022-09-23T22:57:40.529Z,7.56
2022-09-23T23:00:09.676Z,7.56
2022-09-23T23:02:37.756Z,7.57
2022-09-23T23:05:06.570Z,7.58
2022-09-23T23:07:35.159Z,7.57
2022-09-23T23:10:04.920Z,7.53
2022-09-23T23:12:33.647Z,7.50
2022-09-23T23:15:01.715Z,7.47
2022-09-23T23:17:30.027Z,7.46
2022-09-23T23:19:58.466Z,7.46
2022-09-23T23:22:28.621Z,7.45
2022-09-23T23:24:56.871Z,7.46
2022-09-23T23:27:25.092Z,7.45
2022-09-23T23:29:53.196Z,7.45
2022-09-23T23:32:21.257Z,7.47
2022-09-23T23:34:49.296Z,7.50
2022-09-23T23:37:20.783Z,7.48
2022-09-23T23:39:49.301Z,7.54
2022-09-23T23:42:17.814Z,7.58
2022-09-23T23:44:45.962Z,7.62
2022-09-23T23:47:14.119Z,7.65
2022-09-23T23:49:42.155Z,7.63
2022-09-23T23:52:10.436Z,7.62
2022-09-23T23:54:39.234Z,7.60
2022-09-23T23:57:07.333Z,7.54
2022-09-23T23:59:35.771Z,7.61
